Time;durP1;ratioP1;P1;durP2;ratioP2;P2;SDS_P1;SDS_P2;PMS_P1;PMS_P2;Temp;Humidity;BMP_temperature;BMP_pressure;BME280_temperature;BME280_humidity;BME280_pressure;Samples;Min_cycle;Max_cycle;Signal;HPM_P1;HPM_P2
2021/09/06 00:03:53;;;;;;;7.35;4.20;;;;;;;9.80;60.63;100439.74;1882419;75;22685;-39
2021/09/06 00:06:20;;;;;;;7.20;5.05;;;;;;;9.71;60.70;100437.65;1857914;77;21011;-39
2021/09/06 00:08:49;;;;;;;11.28;5.83;;;;;;;9.68;60.69;100441.58;1844511;77;21030;-39
2021/09/06 00:11:16;;;;;;;9.80;5.67;;;;;;;9.63;60.60;100439.85;1828770;77;20948;-39
2021/09/06 00:13:44;;;;;;;9.98;6.03;;;;;;;9.60;60.53;100442.63;1847287;77;20922;-39
2021/09/06 00:16:12;;;;;;;11.80;6.20;;;;;;;9.57;60.60;100447.91;1853152;77;20948;-39
2021/09/06 00:18:39;;;;;;;9.08;5.55;;;;;;;9.54;60.83;100451.25;1827612;77;21530;-39
2021/09/06 00:21:06;;;;;;;9.63;6.20;;;;;;;9.51;60.95;100454.63;1829526;77;21104;-39
2021/09/06 00:23:35;;;;;;;12.47;6.70;;;;;;;9.47;61.12;100452.34;1872489;75;20977;-39
2021/09/06 00:26:04;;;;;;;11.78;5.97;;;;;;;9.43;61.36;100451.41;1849466;75;21018;-39
2021/09/06 00:28:32;;;;;;;9.60;5.70;;;;;;;9.42;61.62;100447.11;1826789;77;20991;-39
2021/09/06 00:31:00;;;;;;;10.85;6.10;;;;;;;9.45;61.53;100453.21;1858355;77;20982;-39
2021/09/06 00:33:28;;;;;;;10.98;6.55;;;;;;;9.50;61.65;100453.83;1828922;77;20924;-39
2021/09/06 00:35:57;;;;;;;11.78;6.45;;;;;;;9.54;61.66;100456.11;1842098;77;21035;-39
2021/09/06 00:38:25;;;;;;;12.47;6.35;;;;;;;9.56;61.40;100455.24;1832365;77;20964;-39
2021/09/06 00:40:53;;;;;;;10.30;6.53;;;;;;;9.58;61.23;100448.16;1854962;77;20928;-39
2021/09/06 00:43:19;;;;;;;11.43;6.05;;;;;;;9.60;61.40;100449.96;1849618;77;21494;-39
2021/09/06 00:45:48;;;;;;;8.50;6.03;;;;;;;9.60;61.22;100454.81;1825139;78;21499;-39
2021/09/06 00:48:17;;;;;;;11.28;6.00;;;;;;;9.58;61.17;100459.75;1829371;75;21016;-39
2021/09/06 00:50:46;;;;;;;10.75;6.60;;;;;;;9.55;61.34;100455.00;1841015;77;20908;-39
2021/09/06 00:53:13;;;;;;;10.18;5.90;;;;;;;9.51;61.34;100454.06;1855183;77;20976;-39
2021/09/06 00:55:40;;;;;;;9.28;6.15;;;;;;;9.48;61.41;100453.38;1859130;76;20992;-39
2021/09/06 00:58:09;;;;;;;9.55;6.05;;;;;;;9.44;61.44;100457.06;1849005;77;21781;-39
2021/09/06 01:00:36;;;;;;;9.60;6.12;;;;;;;9.39;61.36;100457.23;1841738;77;21550;-39
2021/09/06 01:03:03;;;;;;;11.53;6.53;;;;;;;9.33;61.39;100450.41;1822566;77;21020;-39
2021/09/06 01:05:30;;;;;;;10.25;6.22;;;;;;;9.30;61.51;100459.16;1815606;77;21634;-39
2021/09/06 01:07:57;;;;;;;10.13;6.90;;;;;;;8.57;61.52;100341.57;1827235;77;21045;-39
2021/09/06 01:10:36;;;;;;;10.38;6.72;;;;;;;9.24;61.54;100449.65;1821242;77;20934;-39
2021/09/06 01:13:07;;;;;;;9.65;6.37;;;;;;;9.19;61.60;100445.20;1845032;77;21574;-39
2021/09/06 01:15:34;;;;;;;8.45;6.08;;;;;;;9.16;61.83;100447.98;1847692;77;20973;-39
2021/09/06 01:18:03;;;;;;;10.48;6.30;;;;;;;9.18;62.07;100453.09;1816808;77;21018;-39
2021/09/06 01:20:31;;;;;;;12.67;5.87;;;;;;;9.24;62.31;100455.06;1822810;77;20978;-39
2021/09/06 01:22:58;;;;;;;13.45;6.87;;;;;;;9.32;62.33;100447.46;1824450;77;21001;-39
2021/09/06 01:25:30;;;;;;;9.28;6.00;;;;;;;9.33;62.49;100455.82;1809622;79;20965;-39
2021/09/06 01:27:57;;;;;;;9.35;5.67;;;;;;;9.32;62.96;100459.64;1814887;77;21552;-39
2021/09/06 01:30:25;;;;;;;11.03;5.35;;;;;;;9.27;62.93;100459.81;1829077;77;20993;-39
2021/09/06 01:32:52;;;;;;;10.23;5.42;;;;;;;9.24;62.72;100461.83;1825443;77;21029;-39
2021/09/06 01:35:19;;;;;;;9.20;5.97;;;;;;;9.22;62.65;100456.73;1846875;77;21050;-39
2021/09/06 01:37:47;;;;;;;9.93;5.90;;;;;;;9.21;62.57;100459.75;1846143;77;20954;-39
2021/09/06 01:40:15;;;;;;;9.28;5.05;;;;;;;9.14;62.67;100460.27;1826699;77;21053;-39
2021/09/06 01:42:42;;;;;;;9.55;5.37;;;;;;;9.09;62.67;100465.29;1815678;77;21010;-39
2021/09/06 01:45:11;;;;;;;7.25;5.22;;;;;;;9.05;62.61;100459.50;1844618;77;22109;-39
2021/09/06 01:47:38;;;;;;;7.37;5.08;;;;;;;9.02;62.63;100460.92;1846159;77;21081;-39
2021/09/06 01:50:06;;;;;;;9.35;5.40;;;;;;;8.99;62.62;100461.57;1829577;77;21203;-39
2021/09/06 01:52:34;;;;;;;11.60;6.12;;;;;;;8.95;62.79;100463.34;1843328;77;20911;-39
2021/09/06 01:55:04;;;;;;;11.08;5.47;;;;;;;8.92;62.86;100469.37;1843452;77;21069;-39
2021/09/06 01:57:32;;;;;;;8.08;5.37;;;;;;;8.93;62.65;100467.46;1847325;77;21532;-39
2021/09/06 01:59:59;;;;;;;10.80;5.58;;;;;;;8.96;62.48;100470.31;1846422;77;21507;-39
2021/09/06 02:02:27;;;;;;;9.03;5.97;;;;;;;9.00;62.16;100464.52;1846803;76;21006;-39
2021/09/06 02:04:55;;;;;;;10.65;6.65;;;;;;;9.02;62.04;100475.00;1850642;77;21483;-39
2021/09/06 02:07:22;;;;;;;11.28;6.75;;;;;;;9.02;61.82;100474.44;1853654;77;21065;-39
2021/09/06 02:09:49;;;;;;;10.13;6.55;;;;;;;9.04;62.04;100470.87;1828621;77;21036;-39
2021/09/06 02:12:16;;;;;;;9.98;6.58;;;;;;;9.06;62.14;100472.67;1861578;77;21778;-39
2021/09/06 02:14:46;;;;;;;;;;;;;;;9.08;62.14;100468.31;1842523;77;20963;-39
2021/09/06 02:17:13;;;;;;;11.10;7.25;;;;;;;9.08;62.14;100474.52;1856477;77;20425;-39
2021/09/06 02:19:40;;;;;;;10.72;6.42;;;;;;;8.96;62.18;100472.22;1841720;76;21535;-39
2021/09/06 02:22:07;;;;;;;10.68;7.37;;;;;;;8.97;61.86;100479.22;1828223;77;21584;-39
2021/09/06 02:24:44;;;;;;;9.18;6.33;;;;;;;8.96;61.86;100471.66;1827031;77;21143;-39
2021/09/06 02:27:22;;;;;;;11.20;7.15;;;;;;;8.94;61.90;100473.91;1849277;77;20965;-39
2021/09/06 02:29:48;;;;;;;12.68;6.58;;;;;;;8.90;61.81;100479.73;1827738;78;20991;-39
2021/09/06 02:32:17;;;;;;;10.03;6.53;;;;;;;8.87;61.89;100480.35;1827441;78;21007;-39
2021/09/06 02:34:51;;;;;;;10.38;6.28;;;;;;;8.85;61.89;100485.86;1811909;77;21478;-39
2021/09/06 02:37:19;;;;;;;9.70;6.33;;;;;;;8.81;62.06;100489.73;1829838;77;21086;-39
2021/09/06 02:39:46;;;;;;;8.80;5.85;;;;;;;8.77;62.24;100491.49;1848077;77;20944;-39
2021/09/06 02:42:15;;;;;;;12.37;6.72;;;;;;;8.80;62.36;100488.17;1829111;77;21042;-39
2021/09/06 02:44:43;;;;;;;8.35;6.08;;;;;;;8.86;62.48;100488.80;1857397;77;21035;-39
2021/09/06 02:47:10;;;;;;;12.50;6.83;;;;;;;8.90;62.59;100491.89;1858921;77;20957;-39
2021/09/06 02:49:37;;;;;;;11.08;6.72;;;;;;;8.93;62.69;100488.55;1852646;77;21129;-39
2021/09/06 02:52:06;;;;;;;9.70;6.40;;;;;;;8.95;62.66;100495.79;1853146;77;21431;-39
2021/09/06 02:54:34;;;;;;;11.88;6.80;;;;;;;8.98;62.54;100492.44;1850042;76;20948;-39
2021/09/06 02:57:01;;;;;;;10.05;6.80;;;;;;;8.99;62.39;100494.58;1836594;77;20951;-39
2021/09/06 02:59:28;;;;;;;12.60;6.60;;;;;;;9.00;62.33;100501.03;1860460;77;21027;-40
2021/09/06 03:01:55;;;;;;;10.43;6.78;;;;;;;8.99;62.27;100493.23;1828737;77;21774;-39
2021/09/06 03:04:22;;;;;;;11.55;6.78;;;;;;;8.96;62.14;100489.80;1825095;78;20952;-39
2021/09/06 03:06:50;;;;;;;9.10;6.40;;;;;;;8.94;62.24;100492.05;1824522;78;20916;-39
2021/09/06 03:09:18;;;;;;;14.50;7.42;;;;;;;8.91;62.35;100496.17;1830497;77;21075;-39
2021/09/06 03:11:45;;;;;;;9.95;6.83;;;;;;;8.88;62.46;100500.88;1858371;77;21027;-39
2021/09/06 03:14:12;;;;;;;14.23;7.25;;;;;;;8.87;62.53;100511.45;1827288;77;21863;-39
2021/09/06 03:16:40;;;;;;;12.47;6.92;;;;;;;8.85;62.59;100506.14;1825426;77;21867;-39
2021/09/06 03:19:07;;;;;;;8.15;5.35;;;;;;;8.84;62.62;100505.89;1831122;77;20912;-39
2021/09/06 03:21:37;;;;;;;;;;;;;;;8.86;62.55;100508.50;1832896;77;20928;-39
2021/09/06 03:24:05;;;;;;;9.80;6.42;;;;;;;8.92;62.47;100513.19;1844059;77;20169;-39
2021/09/06 03:26:32;;;;;;;8.25;5.83;;;;;;;8.85;62.77;100510.98;1845622;77;21169;-39
2021/09/06 03:28:59;;;;;;;9.45;5.95;;;;;;;8.89;62.69;100514.64;1840891;77;21003;-39
2021/09/06 03:31:25;;;;;;;7.25;5.58;;;;;;;8.92;62.49;100513.98;1824967;77;20975;-39
2021/09/06 03:33:54;;;;;;;7.80;5.47;;;;;;;8.95;62.39;100517.98;1852940;77;20956;-39
2021/09/06 03:36:21;;;;;;;6.22;4.85;;;;;;;8.96;62.31;100514.94;1827384;77;20999;-39
2021/09/06 03:38:50;;;;;;;8.90;5.53;;;;;;;8.96;62.16;100519.55;1824470;77;21128;-39
2021/09/06 03:41:17;;;;;;;7.47;4.85;;;;;;;8.95;62.06;100521.48;1857872;77;21022;-39
2021/09/06 03:43:44;;;;;;;6.95;5.22;;;;;;;8.93;62.04;100515.59;1848282;75;20971;-39
2021/09/06 03:46:10;;;;;;;6.47;4.60;;;;;;;8.92;62.09;100521.30;1842846;75;21238;-39
2021/09/06 03:48:38;;;;;;;8.88;5.35;;;;;;;8.88;62.16;100523.86;1847186;75;21012;-39
2021/09/06 03:51:06;;;;;;;7.78;5.40;;;;;;;8.86;62.22;100521.25;1851001;75;21136;-39
2021/09/06 03:53:34;;;;;;;9.68;5.40;;;;;;;8.49;62.31;100465.91;1857363;77;20901;-39
2021/09/06 03:56:00;;;;;;;8.73;5.40;;;;;;;8.81;62.50;100524.89;1842107;75;20995;-39
2021/09/06 03:58:29;;;;;;;7.22;4.90;;;;;;;8.80;62.57;100530.08;1824236;77;20963;-39
2021/09/06 04:00:56;;;;;;;7.85;5.10;;;;;;;8.82;62.73;100521.08;1835414;77;21525;-39
2021/09/06 04:03:24;;;;;;;7.12;5.10;;;;;;;8.90;62.79;100528.41;1845405;75;21124;-39
2021/09/06 04:05:52;;;;;;;7.80;5.30;;;;;;;9.01;62.81;100529.65;1825589;77;21079;-39
2021/09/06 04:08:19;;;;;;;9.00;5.03;;;;;;;9.08;62.83;100529.97;1840199;77;21006;-39
2021/09/06 04:10:47;;;;;;;7.33;5.05;;;;;;;9.16;62.80;100531.06;1829902;77;20990;-39
2021/09/06 04:13:15;;;;;;;6.85;4.62;;;;;;;9.25;62.79;100538.59;1813964;77;21444;-39
2021/09/06 04:15:45;;;;;;;7.30;4.97;;;;;;;9.34;62.67;100541.30;1814295;79;21544;-39
2021/09/06 04:18:12;;;;;;;8.65;5.28;;;;;;;9.38;62.21;100545.75;1819970;76;20955;-39
2021/09/06 04:20:39;;;;;;;7.45;4.28;;;;;;;9.39;62.08;100545.97;1828122;76;20982;-39
2021/09/06 04:23:06;;;;;;;7.05;4.60;;;;;;;9.36;62.08;100541.77;1839947;77;20958;-39
2021/09/06 04:25:33;;;;;;;7.35;4.60;;;;;;;9.36;62.14;100548.53;1830253;76;20967;-39
2021/09/06 04:28:02;;;;;;;6.50;4.92;;;;;;;9.34;62.19;100542.11;1871839;76;21144;-39
2021/09/06 04:30:29;;;;;;;8.13;4.55;;;;;;;9.34;62.60;100542.66;1833833;77;20954;-40
2021/09/06 04:32:56;;;;;;;6.72;4.53;;;;;;;9.36;62.66;100545.27;1824153;76;20945;-39
2021/09/06 04:35:24;;;;;;;7.30;4.60;;;;;;;9.40;62.80;100545.41;1846540;76;21074;-40
2021/09/06 04:37:52;;;;;;;6.00;4.12;;;;;;;9.48;62.91;100537.84;1847212;76;21037;-40
2021/09/06 04:40:21;;;;;;;5.72;4.42;;;;;;;9.63;62.96;100548.70;1848447;76;21250;-40
2021/09/06 04:42:49;;;;;;;5.80;4.10;;;;;;;9.77;62.71;100547.38;1870409;76;21467;-40
2021/09/06 04:45:17;;;;;;;5.80;4.12;;;;;;;9.87;62.59;100551.64;1872332;76;20965;-40
2021/09/06 04:47:44;;;;;;;8.30;4.87;;;;;;;9.97;62.56;100548.57;1868518;76;21018;-40
2021/09/06 04:50:11;;;;;;;5.35;3.77;;;;;;;10.10;62.52;100553.52;1831587;76;21084;-40
2021/09/06 04:52:38;;;;;;;5.33;4.03;;;;;;;10.20;62.49;100551.82;1845264;77;21106;-40
2021/09/06 04:55:07;;;;;;;5.53;4.05;;;;;;;10.28;62.46;100553.67;1846441;77;20903;-39
2021/09/06 04:57:34;;;;;;;6.00;3.92;;;;;;;10.37;62.72;100554.41;1833173;77;20994;-39
2021/09/06 05:00:01;;;;;;;5.53;4.12;;;;;;;10.44;62.88;100554.14;1819189;77;21603;-39
2021/09/06 05:02:28;;;;;;;5.03;3.35;;;;;;;10.51;62.92;100563.09;1845987;77;21107;-39
2021/09/06 05:04:55;;;;;;;4.05;3.05;;;;;;;10.54;63.07;100558.94;1828593;77;21101;-40
2021/09/06 05:07:22;;;;;;;5.62;3.65;;;;;;;10.60;63.10;100557.05;1819309;78;20946;-39
2021/09/06 05:09:49;;;;;;;6.08;3.22;;;;;;;10.71;63.13;100559.59;1800624;79;21513;-39
2021/09/06 05:12:17;;;;;;;5.92;3.45;;;;;;;10.82;62.90;100562.16;1800357;79;20932;-39
2021/09/06 05:14:44;;;;;;;5.12;3.87;;;;;;;10.89;63.17;100555.62;1819110;76;21068;-40
2021/09/06 05:17:12;;;;;;;5.72;3.58;;;;;;;11.00;63.10;100552.50;1832658;76;20939;-39
2021/09/06 05:19:40;;;;;;;5.05;3.45;;;;;;;11.09;63.01;100562.71;1820431;77;21010;-39
2021/09/06 05:22:07;;;;;;;4.97;3.22;;;;;;;11.18;62.57;100559.37;1822590;78;20992;-39
2021/09/06 05:24:37;;;;;;;5.87;3.50;;;;;;;11.26;62.21;100557.93;1783805;79;21555;-39
2021/09/06 05:27:05;;;;;;;4.80;3.33;;;;;;;11.33;62.25;100556.01;1784560;78;21117;-39
2021/09/06 05:29:32;;;;;;;4.95;3.15;;;;;;;11.41;62.25;100559.22;1802513;78;21163;-39
2021/09/06 05:31:58;;;;;;;4.80;3.67;;;;;;;11.49;62.47;100558.33;1801400;79;20949;-39
2021/09/06 05:34:25;;;;;;;4.10;3.25;;;;;;;11.57;62.71;100558.02;1807044;79;21673;-39
2021/09/06 05:36:52;;;;;;;3.52;2.72;;;;;;;11.71;62.61;100562.57;1763504;80;21043;-39
2021/09/06 05:39:19;;;;;;;4.67;2.77;;;;;;;11.88;62.25;100565.09;1778525;79;21063;-40
2021/09/06 05:41:53;;;;;;;3.85;2.42;;;;;;;12.05;61.61;100563.50;1761209;81;21778;-40
2021/09/06 05:44:21;;;;;;;3.22;2.58;;;;;;;12.19;61.27;100567.27;1802400;77;21004;-40
2021/09/06 05:46:48;;;;;;;3.05;2.12;;;;;;;12.33;60.00;100568.27;1786253;80;20947;-40
2021/09/06 05:49:15;;;;;;;2.80;2.22;;;;;;;12.44;59.84;100566.09;1797150;77;21130;-40
2021/09/06 05:51:43;;;;;;;4.25;1.87;;;;;;;12.57;59.73;100565.52;1788006;80;21030;-40
2021/09/06 05:54:14;;;;;;;4.45;2.75;;;;;;;12.70;59.03;100574.44;1778043;78;21145;-40
2021/09/06 05:56:41;;;;;;;3.80;2.10;;;;;;;12.78;58.57;100574.89;1814379;78;20922;-40
2021/09/06 05:59:08;;;;;;;4.28;1.95;;;;;;;12.85;58.29;100584.04;1798977;78;20979;-40
2021/09/06 06:01:35;;;;;;;3.00;2.15;;;;;;;12.95;57.48;100578.11;1803243;77;21502;-40
2021/09/06 06:04:02;;;;;;;4.53;2.30;;;;;;;13.02;57.52;100582.38;1793100;77;21007;-39
2021/09/06 06:06:39;;;;;;;2.87;2.10;;;;;;;13.12;57.59;100583.09;1793316;77;21802;-39
2021/09/06 06:09:07;;;;;;;2.45;2.20;;;;;;;13.18;57.68;100590.64;1771667;79;21524;-40
2021/09/06 06:11:40;;;;;;;6.22;2.35;;;;;;;13.21;57.50;100584.52;1819828;77;20957;-40
2021/09/06 06:14:11;;;;;;;3.10;2.45;;;;;;;13.25;57.00;100587.34;1783978;79;20967;-40
2021/09/06 06:16:38;;;;;;;4.10;2.58;;;;;;;13.24;56.91;100591.98;1787018;79;21054;-40
2021/09/06 06:19:07;;;;;;;3.25;2.20;;;;;;;13.25;57.37;100589.49;1789459;79;21536;-40
2021/09/06 06:21:37;;;;;;;;;;;;;;;13.31;57.16;100594.13;1788760;78;21002;-40
2021/09/06 06:24:17;;;;;;;;;;;;;;;13.34;56.73;100596.94;1772755;78;20117;-40
2021/09/06 06:26:45;;;;;;;2.87;2.05;;;;;;;13.26;56.81;100600.61;1790091;78;20169;-40
2021/09/06 06:29:14;;;;;;;2.67;1.95;;;;;;;13.22;56.66;100593.45;1763127;78;21061;-40
2021/09/06 06:31:42;;;;;;;3.67;1.80;;;;;;;13.33;56.40;100589.11;1811080;79;21078;-40
2021/09/06 06:34:10;;;;;;;3.30;1.95;;;;;;;13.42;55.27;100591.89;1811057;79;20970;-40
2021/09/06 06:36:38;;;;;;;4.12;1.92;;;;;;;13.47;54.21;100598.45;1809681;78;21524;-40
2021/09/06 06:39:05;;;;;;;3.77;1.90;;;;;;;13.50;54.27;100591.53;1775347;79;21060;-40
2021/09/06 06:41:33;;;;;;;2.60;1.60;;;;;;;13.57;54.84;100596.36;1774603;77;21085;-40
2021/09/06 06:44:05;;;;;;;2.62;1.57;;;;;;;13.68;54.48;100598.80;1793457;77;21185;-40
2021/09/06 06:46:33;;;;;;;2.83;1.87;;;;;;;13.74;53.92;100596.84;1815127;79;20982;-40
2021/09/06 06:49:00;;;;;;;3.02;1.55;;;;;;;13.83;54.33;100599.39;1815413;79;21042;-40
2021/09/06 06:51:29;;;;;;;3.35;1.98;;;;;;;13.94;53.94;100597.14;1794856;79;21001;-40
2021/09/06 06:53:56;;;;;;;2.65;2.02;;;;;;;14.03;53.11;100601.08;1785247;80;21088;-40
2021/09/06 06:56:26;;;;;;;2.70;1.77;;;;;;;14.06;53.16;100598.20;1785011;80;21247;-40
2021/09/06 06:58:55;;;;;;;2.50;1.65;;;;;;;14.09;53.17;100602.38;1799051;77;21634;-40
2021/09/06 07:01:22;;;;;;;2.20;1.57;;;;;;;14.12;53.03;100597.59;1821309;77;21562;-40
2021/09/06 07:03:51;;;;;;;2.15;1.70;;;;;;;14.18;52.53;100596.77;1774049;79;21037;-40
2021/09/06 07:06:18;;;;;;;4.80;1.90;;;;;;;14.27;53.10;100591.34;1786943;79;21033;-40
2021/09/06 07:08:44;;;;;;;2.10;1.50;;;;;;;14.38;52.99;100595.69;1809805;78;21079;-40
2021/09/06 07:11:11;;;;;;;2.72;1.90;;;;;;;14.42;52.65;100598.52;1792279;79;21000;-40
2021/09/06 07:13:39;;;;;;;2.58;1.75;;;;;;;14.43;52.63;100600.08;1770042;80;20996;-40
2021/09/06 07:16:08;;;;;;;2.80;1.75;;;;;;;14.38;52.07;100603.11;1768245;78;20996;-40
2021/09/06 07:18:35;;;;;;;3.50;1.85;;;;;;;14.39;52.53;100593.75;1816531;79;21044;-40
2021/09/06 07:21:02;;;;;;;3.42;2.35;;;;;;;14.38;52.02;100595.69;1806296;79;21130;-40
2021/09/06 07:23:30;;;;;;;3.10;2.12;;;;;;;14.46;52.70;100591.20;1804337;79;21096;-40
2021/09/06 07:25:57;;;;;;;3.35;2.02;;;;;;;14.57;52.37;100591.64;1795162;79;20999;-40
2021/09/06 07:28:24;;;;;;;3.75;2.20;;;;;;;14.67;52.30;100597.11;1801618;78;21083;-40
2021/09/06 07:30:52;;;;;;;3.33;2.08;;;;;;;14.78;50.53;100596.21;1814776;79;21039;-40
2021/09/06 07:33:22;;;;;;;3.33;2.10;;;;;;;14.86;50.75;100592.28;1797624;79;21056;-40
2021/09/06 07:35:49;;;;;;;3.62;1.85;;;;;;;14.98;49.56;100594.30;1785601;79;20972;-40
2021/09/06 07:38:16;;;;;;;2.40;1.80;;;;;;;15.07;50.33;100598.96;1791266;79;20968;-40
2021/09/06 07:40:42;;;;;;;2.58;1.80;;;;;;;15.21;48.70;100593.78;1805460;79;20984;-40
2021/09/06 07:43:09;;;;;;;2.27;1.60;;;;;;;15.28;48.72;100594.51;1785847;79;21008;-40
2021/09/06 07:45:36;;;;;;;2.02;1.50;;;;;;;15.37;48.71;100590.97;1791939;79;21111;-40
2021/09/06 07:48:03;;;;;;;2.20;1.40;;;;;;;15.42;48.26;100588.52;1785798;79;21084;-40
2021/09/06 07:50:41;;;;;;;2.70;1.70;;;;;;;15.46;48.20;100586.64;1785284;80;21029;-40
2021/09/06 07:53:08;;;;;;;1.80;1.40;;;;;;;15.54;48.50;100593.88;1800398;79;21004;-40
2021/09/06 07:55:36;;;;;;;1.50;1.40;;;;;;;15.64;46.12;100591.30;1799478;78;21037;-40
2021/09/06 07:58:02;;;;;;;1.90;1.30;;;;;;;15.74;46.38;100583.65;1791471;79;21152;-40
2021/09/06 08:00:29;;;;;;;1.70;1.22;;;;;;;15.87;46.48;100590.55;1785569;80;21036;-40
2021/09/06 08:02:56;;;;;;;3.20;1.40;;;;;;;15.98;44.40;100585.45;1785706;80;20933;-40
2021/09/06 08:05:29;;;;;;;1.70;1.20;;;;;;;16.07;43.50;100587.35;1776550;78;21071;-40
2021/09/06 08:07:57;;;;;;;2.25;1.20;;;;;;;16.11;43.11;100586.06;1744540;81;21019;-40
2021/09/06 08:10:25;;;;;;;4.33;1.60;;;;;;;16.12;42.74;100584.12;1738328;82;21019;-40
2021/09/06 08:12:53;;;;;;;2.12;1.50;;;;;;;16.15;42.55;100580.64;1743788;79;20996;-40
2021/09/06 08:15:20;;;;;;;2.35;1.67;;;;;;;16.20;41.00;100582.48;1757346;81;21487;-40
2021/09/06 08:17:48;;;;;;;3.12;1.87;;;;;;;16.21;42.09;100588.17;1760890;81;21032;-40
2021/09/06 08:20:16;;;;;;;2.50;1.60;;;;;;;16.21;42.16;100594.22;1766289;81;21570;-40
2021/09/06 08:22:44;;;;;;;2.42;1.50;;;;;;;16.17;41.92;100593.39;1764886;81;21522;-40
2021/09/06 08:25:12;;;;;;;2.52;1.60;;;;;;;16.16;41.26;100589.86;1768823;81;21490;-40
2021/09/06 08:27:39;;;;;;;2.50;1.60;;;;;;;16.11;41.40;100569.64;1744540;81;20952;-40
2021/09/06 08:30:09;;;;;;;2.58;1.70;;;;;;;16.32;42.03;100595.16;1750129;81;21063;-40
2021/09/06 08:32:36;;;;;;;2.58;1.65;;;;;;;16.44;40.47;100587.55;1753310;81;21033;-40
2021/09/06 08:35:04;;;;;;;2.12;1.40;;;;;;;16.52;40.17;100581.58;1749450;81;21120;-40
2021/09/06 08:37:32;;;;;;;2.20;1.50;;;;;;;16.55;40.48;100582.23;1750654;81;21014;-40
2021/09/06 08:39:59;;;;;;;2.22;1.30;;;;;;;16.54;40.24;100583.38;1766767;81;20991;-40
2021/09/06 08:42:26;;;;;;;1.85;1.50;;;;;;;16.44;40.35;100582.08;1763891;81;21584;-40
2021/09/06 08:44:53;;;;;;;1.82;1.40;;;;;;;16.40;40.21;100573.60;1763633;81;21024;-40
2021/09/06 08:47:19;;;;;;;1.40;1.30;;;;;;;16.41;40.44;100575.19;1766689;81;21116;-40
2021/09/06 08:49:47;;;;;;;3.15;1.32;;;;;;;16.43;39.24;100574.22;1766915;81;20944;-40
2021/09/06 08:52:14;;;;;;;3.17;1.72;;;;;;;16.39;37.93;100576.13;1769025;81;20956;-40
2021/09/06 08:54:41;;;;;;;1.75;1.10;;;;;;;16.33;38.68;100577.59;1751268;79;20940;-40
2021/09/06 08:57:09;;;;;;;3.40;1.30;;;;;;;16.27;38.43;100577.69;1740751;81;21051;-40
2021/09/06 08:59:44;;;;;;;1.37;1.10;;;;;;;16.22;38.75;100578.00;1738633;82;21179;-40
2021/09/06 09:02:12;;;;;;;2.00;1.40;;;;;;;16.20;39.10;100573.48;1746870;79;21003;-40
2021/09/06 09:05:03;;;;;;;1.20;1.10;;;;;;;16.23;39.87;100583.69;1757720;80;21094;-40
2021/09/06 09:07:39;;;;;;;1.87;1.17;;;;;;;16.20;36.79;100580.33;1780087;79;21092;-40
2021/09/06 09:10:12;;;;;;;;;;;;;;;16.14;37.39;100582.58;1799445;79;21482;-40
2021/09/06 09:12:43;;;;;;;3.35;1.30;;;;;;;16.21;38.42;100577.81;1798717;79;21129;-40
2021/09/06 09:15:14;;;;;;;3.15;1.35;;;;;;;16.19;39.09;100574.64;1749854;81;21047;-40
2021/09/06 09:17:53;;;;;;;1.95;1.25;;;;;;;16.29;38.52;100576.75;1699565;82;21057;-40
2021/09/06 09:20:41;;;;;;;1.80;1.37;;;;;;;16.33;39.03;100585.80;1746138;81;21000;-40
2021/09/06 09:23:12;;;;;;;2.12;1.30;;;;;;;16.39;39.50;100590.60;1755341;81;21020;-40
2021/09/06 09:25:43;;;;;;;2.50;1.05;;;;;;;16.46;39.42;100589.31;1739596;81;21203;-40
2021/09/06 09:28:27;;;;;;;;;;;;;;;16.55;39.70;100584.18;1745569;81;21041;-40
2021/09/06 09:31:13;;;;;;;1.42;1.10;;;;;;;16.62;37.66;100576.08;1766250;81;20483;-40
2021/09/06 09:33:48;;;;;;;1.92;1.30;;;;;;;16.60;37.62;100578.41;1737722;82;21616;-40
2021/09/06 09:36:30;;;;;;;2.55;1.40;;;;;;;16.73;37.45;100581.92;1736611;82;21452;-40
2021/09/06 09:39:13;;;;;;;4.35;1.20;;;;;;;16.90;37.33;100584.09;1736254;81;21134;-40
2021/09/06 09:41:48;;;;;;;2.70;1.37;;;;;;;17.05;36.85;100584.27;1723368;81;20992;-40
2021/09/06 09:44:22;;;;;;;2.10;1.50;;;;;;;17.17;36.42;100586.20;1723026;81;21012;-40
2021/09/06 09:47:07;;;;;;;1.62;1.15;;;;;;;17.26;36.52;100588.64;1683701;84;20978;-40
2021/09/06 09:49:34;;;;;;;4.50;1.30;;;;;;;17.28;36.04;100584.34;1723340;81;20997;-40
2021/09/06 09:52:05;;;;;;;3.02;1.30;;;;;;;17.41;35.86;100586.27;1708655;82;21200;-40
2021/09/06 09:54:33;;;;;;;1.80;1.20;;;;;;;17.48;35.04;100582.21;1754756;80;21003;-40
2021/09/06 09:57:00;;;;;;;1.32;1.22;;;;;;;17.48;33.57;100582.78;1768889;81;21024;-40
2021/09/06 09:59:26;;;;;;;1.40;1.07;;;;;;;17.37;34.01;100578.59;1753637;81;21035;-40
2021/09/06 10:02:10;;;;;;;1.35;1.20;;;;;;;17.28;34.05;100580.23;1738585;81;21038;-40
2021/09/06 10:04:51;;;;;;;2.05;1.20;;;;;;;17.22;34.95;100576.84;1760571;81;21130;-40
2021/09/06 10:07:20;;;;;;;1.85;1.30;;;;;;;17.18;33.85;100578.77;1758070;81;21008;-40
2021/09/06 10:09:47;;;;;;;1.40;1.20;;;;;;;17.16;33.33;100579.70;1768017;79;21087;-40
2021/09/06 10:12:32;;;;;;;1.67;1.32;;;;;;;17.15;33.55;100578.12;1779012;80;20964;-40
2021/09/06 10:15:03;;;;;;;1.62;1.22;;;;;;;17.10;34.69;100582.56;1775500;80;21061;-40
2021/09/06 10:17:36;;;;;;;1.98;1.40;;;;;;;17.13;34.33;100585.38;1738815;81;21728;-40
2021/09/06 10:20:16;;;;;;;3.50;1.85;;;;;;;17.18;33.92;100586.98;1738731;81;21659;-40
2021/09/06 10:22:45;;;;;;;2.30;1.50;;;;;;;17.23;35.18;100586.05;1747039;81;21452;-40
2021/09/06 10:25:19;;;;;;;2.27;1.30;;;;;;;17.29;35.97;100584.56;1747009;81;21044;-40
2021/09/06 10:28:04;;;;;;;3.45;1.20;;;;;;;17.33;34.83;100587.36;1741617;81;20996;-40
2021/09/06 10:30:36;;;;;;;1.47;1.10;;;;;;;17.34;35.02;100589.70;1766880;81;21048;-40
2021/09/06 10:33:06;;;;;;;2.25;1.30;;;;;;;17.35;34.34;100587.76;1752741;79;21548;-40
2021/09/06 10:35:34;;;;;;;2.05;1.00;;;;;;;17.42;34.57;100588.42;1708510;84;21036;-40
2021/09/06 10:38:12;;;;;;;3.33;1.00;;;;;;;17.52;34.62;100594.03;1723305;81;21649;-40
2021/09/06 10:40:42;;;;;;;1.50;1.27;;;;;;;17.61;34.37;100591.80;1677924;84;21077;-40
2021/09/06 10:43:21;;;;;;;1.70;1.10;;;;;;;17.72;34.21;100587.18;1686162;82;21142;-40
2021/09/06 10:45:52;;;;;;;2.30;1.22;;;;;;;17.90;34.25;100583.83;1706043;84;21830;-40
2021/09/06 10:48:21;;;;;;;1.10;1.00;;;;;;;18.03;33.36;100583.73;1705705;84;20979;-40
2021/09/06 10:50:49;;;;;;;2.15;1.27;;;;;;;18.11;33.83;100579.87;1706346;84;21652;-40
2021/09/06 10:53:19;;;;;;;1.50;1.20;;;;;;;18.13;32.75;100581.66;1678489;84;21074;-40
2021/09/06 10:55:50;;;;;;;1.75;1.12;;;;;;;18.16;32.83;100584.42;1699168;84;21063;-40
2021/09/06 10:58:19;;;;;;;2.85;1.35;;;;;;;18.17;32.37;100574.23;1678587;84;20983;-40
2021/09/06 11:00:56;;;;;;;1.60;1.40;;;;;;;18.21;33.65;100587.40;1673935;85;20990;-40
2021/09/06 11:03:25;;;;;;;4.33;1.37;;;;;;;18.29;33.07;100580.02;1681507;84;21036;-40
2021/09/06 11:05:59;;;;;;;1.77;1.25;;;;;;;18.35;32.29;100582.63;1688041;83;21444;-40
2021/09/06 11:08:30;;;;;;;1.57;1.07;;;;;;;18.47;32.39;100578.97;1738438;82;21151;-40
2021/09/06 11:11:01;;;;;;;1.20;1.07;;;;;;;18.66;31.21;100569.10;1751860;81;20903;-40
2021/09/06 11:13:39;;;;;;;2.35;1.42;;;;;;;19.02;30.76;100561.03;1736069;81;21520;-40
2021/09/06 11:16:09;;;;;;;1.75;1.15;;;;;;;19.44;29.19;100562.55;1751079;80;20990;-40
2021/09/06 11:18:40;;;;;;;1.65;1.00;;;;;;;19.85;29.51;100558.06;1720113;83;26836;-40
2021/09/06 11:21:07;;;;;;;1.25;1.00;;;;;;;20.25;29.09;100553.52;1751124;81;21107;-40
2021/09/06 11:23:41;;;;;;;2.02;1.45;;;;;;;20.49;28.09;100544.25;1736035;82;21021;-40
2021/09/06 11:26:10;;;;;;;1.70;1.10;;;;;;;20.61;27.12;100544.63;1751254;82;21038;-41
2021/09/06 11:28:44;;;;;;;1.40;1.03;;;;;;;20.75;28.07;100546.55;1728343;82;21682;-40
2021/09/06 11:31:18;;;;;;;1.72;1.15;;;;;;;20.77;27.20;100550.45;1735047;82;21052;-40
2021/09/06 11:33:46;;;;;;;1.52;1.10;;;;;;;20.64;26.77;100545.78;1764008;80;21132;-40
2021/09/06 11:36:17;;;;;;;1.72;1.60;;;;;;;20.53;26.61;100549.16;1736725;81;21489;-40
2021/09/06 11:38:44;;;;;;;1.80;1.25;;;;;;;20.48;27.16;100545.45;1754616;80;21527;-40
2021/09/06 11:41:10;;;;;;;1.30;1.20;;;;;;;20.64;26.48;100549.92;1736346;81;20998;-40